createdAt,value
2023-03-04T00:00:04.096Z,46.60
2023-03-04T00:02:30.593Z,46.50
2023-03-04T00:04:57.081Z,46.40
2023-03-04T00:07:23.621Z,46.50
2023-03-04T00:09:50.110Z,46.50
2023-03-04T00:12:16.603Z,46.50
2023-03-04T00:14:43.074Z,46.50
2023-03-04T00:17:09.590Z,46.40
2023-03-04T00:19:36.088Z,46.50
2023-03-04T00:22:02.576Z,46.50
2023-03-04T00:24:29.070Z,46.60
2023-03-04T00:26:55.591Z,46.50
2023-03-04T00:29:22.055Z,46.50
2023-03-04T00:31:48.649Z,46.60
2023-03-04T00:34:15.140Z,46.60
2023-03-04T00:36:41.639Z,46.60
2023-03-04T00:39:08.122Z,46.40
2023-03-04T00:41:34.776Z,46.60
2023-03-04T00:44:03.287Z,46.60
2023-03-04T00:46:29.749Z,46.60
2023-03-04T00:48:56.235Z,46.60
2023-03-04T00:51:22.720Z,46.60
2023-03-04T00:53:51.309Z,46.40
2023-03-04T00:56:17.771Z,46.40
2023-03-04T00:58:44.253Z,46.60
2023-03-04T01:01:10.769Z,46.60
2023-03-04T01:03:37.287Z,46.60
2023-03-04T01:06:03.769Z,46.60
2023-03-04T01:08:30.255Z,46.60
2023-03-04T01:10:57.279Z,46.60
2023-03-04T01:13:23.781Z,46.60
2023-03-04T01:15:50.286Z,46.60
2023-03-04T01:18:16.770Z,46.60
2023-03-04T01:20:43.258Z,46.60
2023-03-04T01:23:09.741Z,46.60
2023-03-04T01:25:36.221Z,46.40
2023-03-04T01:28:02.690Z,46.60
2023-03-04T01:30:29.158Z,46.60
2023-03-04T01:32:55.643Z,46.60
2023-03-04T01:35:22.158Z,46.50
2023-03-04T01:37:48.649Z,46.60
2023-03-04T01:40:15.148Z,46.60
2023-03-04T01:42:41.620Z,46.60
2023-03-04T01:45:08.082Z,46.70
2023-03-04T01:47:34.572Z,46.50
2023-03-04T01:50:01.061Z,46.60
2023-03-04T01:52:27.548Z,46.70
2023-03-04T01:54:54.020Z,46.70
2023-03-04T01:57:20.627Z,46.70
2023-03-04T01:59:47.107Z,46.70
2023-03-04T02:02:13.573Z,46.50
2023-03-04T02:04:45.381Z,46.70
2023-03-04T02:07:11.908Z,46.70
2023-03-04T02:09:38.382Z,46.70
2023-03-04T02:12:04.840Z,46.70
2023-03-04T02:14:31.330Z,46.70
2023-03-04T02:16:57.815Z,46.60
2023-03-04T02:19:27.384Z,46.70
2023-03-04T02:21:53.862Z,46.70
2023-03-04T02:24:20.334Z,46.70
2023-03-04T02:26:46.833Z,46.60
2023-03-04T02:29:13.336Z,46.80
2023-03-04T02:31:39.877Z,46.70
2023-03-04T02:34:06.378Z,46.80
2023-03-04T02:36:32.883Z,46.70
2023-03-04T02:38:59.387Z,46.80
2023-03-04T02:41:25.927Z,46.70
2023-03-04T02:43:52.425Z,46.80
2023-03-04T02:46:18.957Z,46.80
2023-03-04T02:48:45.487Z,46.70
2023-03-04T02:51:11.976Z,46.80
2023-03-04T02:53:39.421Z,46.80
2023-03-04T02:56:05.884Z,46.80
2023-03-04T02:58:32.373Z,46.90
2023-03-04T03:00:58.866Z,46.90
2023-03-04T03:03:25.361Z,46.80
2023-03-04T03:05:51.820Z,46.80
2023-03-04T03:08:18.274Z,46.80
2023-03-04T03:10:44.772Z,46.80
2023-03-04T03:13:11.253Z,46.80
2023-03-04T03:15:37.717Z,46.80
2023-03-04T03:18:04.171Z,46.80
2023-03-04T03:20:30.676Z,46.80
2023-03-04T03:22:57.161Z,46.90
2023-03-04T03:25:23.637Z,46.90
2023-03-04T03:27:50.109Z,46.90
2023-03-04T03:30:16.922Z,46.70
2023-03-04T03:32:43.402Z,46.90
2023-03-04T03:35:09.888Z,46.90
2023-03-04T03:37:36.380Z,46.90
2023-03-04T03:40:02.859Z,46.90
2023-03-04T03:42:29.352Z,46.90
2023-03-04T03:44:55.853Z,46.90
2023-03-04T03:47:27.616Z,46.90
2023-03-04T03:49:54.118Z,46.90
2023-03-04T03:52:20.584Z,46.90
2023-03-04T03:54:51.473Z,46.80
2023-03-04T03:57:17.982Z,46.90
2023-03-04T03:59:44.463Z,46.90
2023-03-04T04:02:11.065Z,47.00
2023-03-04T04:04:37.591Z,47.00
2023-03-04T04:07:04.090Z,47.00
2023-03-04T04:09:30.566Z,47.00
2023-03-04T04:11:57.038Z,47.00
2023-03-04T04:14:23.502Z,47.00
2023-03-04T04:16:50.034Z,47.00
2023-03-04T04:19:16.628Z,47.00
2023-03-04T04:21:43.124Z,47.00
2023-03-04T04:24:09.579Z,47.10
2023-03-04T04:26:36.063Z,47.00
2023-03-04T04:29:02.536Z,47.00
2023-03-04T04:31:29.001Z,47.00
2023-03-04T04:33:55.509Z,47.00
2023-03-04T04:36:21.972Z,47.00
2023-03-04T04:38:48.456Z,47.00
2023-03-04T04:41:14.912Z,47.10
2023-03-04T04:43:41.382Z,47.10
2023-03-04T04:46:07.869Z,47.10
2023-03-04T04:48:34.466Z,47.10
2023-03-04T04:51:00.982Z,47.10
2023-03-04T04:53:33.510Z,47.00
2023-03-04T04:55:59.993Z,46.90
2023-03-04T04:58:26.458Z,47.10
2023-03-04T05:00:52.947Z,47.10
2023-03-04T05:03:21.422Z,47.20
2023-03-04T05:05:49.233Z,47.20
2023-03-04T05:08:15.701Z,47.10
2023-03-04T05:10:42.183Z,47.10
2023-03-04T05:13:08.672Z,47.20
2023-03-04T05:15:35.191Z,47.20
2023-03-04T05:18:01.722Z,47.00
2023-03-04T05:20:28.237Z,47.20
2023-03-04T05:22:54.713Z,47.10
2023-03-04T05:25:21.222Z,47.10
2023-03-04T05:27:47.681Z,47.20
2023-03-04T05:30:14.173Z,47.20
2023-03-04T05:32:40.785Z,47.20
2023-03-04T05:35:07.262Z,47.20
2023-03-04T05:37:33.720Z,47.20
2023-03-04T05:40:00.212Z,47.20
2023-03-04T05:42:26.713Z,47.20
2023-03-04T05:44:53.201Z,47.20
2023-03-04T05:47:19.662Z,47.20
2023-03-04T05:49:46.143Z,47.20
2023-03-04T05:52:12.613Z,47.30
2023-03-04T05:54:39.094Z,47.30
2023-03-04T05:57:05.576Z,47.30
2023-03-04T05:59:32.064Z,47.20
2023-03-04T06:01:58.562Z,47.30
2023-03-04T06:04:25.045Z,47.20
2023-03-04T06:06:51.531Z,47.20
2023-03-04T06:09:18.019Z,47.30
2023-03-04T06:11:45.575Z,47.10
2023-03-04T06:14:12.098Z,47.30
2023-03-04T06:16:38.589Z,47.30
2023-03-04T06:19:05.072Z,47.30
2023-03-04T06:21:33.570Z,47.30
2023-03-04T06:24:00.038Z,47.40
2023-03-04T06:26:26.536Z,47.40
2023-03-04T06:28:53.014Z,47.40
2023-03-04T06:31:19.517Z,47.40
2023-03-04T06:33:46.024Z,47.20
2023-03-04T06:36:12.469Z,47.40
2023-03-04T06:38:38.949Z,47.40
2023-03-04T06:41:05.412Z,47.40
2023-03-04T06:43:31.903Z,47.40
2023-03-04T06:45:58.426Z,47.40
2023-03-04T06:48:24.907Z,47.40
2023-03-04T06:50:51.426Z,47.40
2023-03-04T06:53:17.922Z,47.40
2023-03-04T06:55:44.429Z,47.50
2023-03-04T06:58:10.902Z,47.50
2023-03-04T07:00:37.392Z,47.50
2023-03-04T07:03:03.888Z,47.50
2023-03-04T07:05:30.363Z,47.50
2023-03-04T07:07:56.863Z,47.50
2023-03-04T07:10:23.358Z,47.50
2023-03-04T07:12:49.859Z,47.50
2023-03-04T07:15:16.345Z,47.50
2023-03-04T07:17:45.624Z,47.50
2023-03-04T07:20:12.094Z,47.50
2023-03-04T07:22:38.570Z,47.50
2023-03-04T07:25:05.039Z,47.50
2023-03-04T07:27:31.535Z,47.50
2023-03-04T07:29:58.022Z,47.60
2023-03-04T07:32:27.654Z,47.60
2023-03-04T07:34:54.245Z,47.70
2023-03-04T07:37:20.738Z,47.70
2023-03-04T07:39:47.210Z,47.70
2023-03-04T07:42:13.702Z,47.70
2023-03-04T07:44:40.182Z,47.70
2023-03-04T07:47:06.693Z,47.70
2023-03-04T07:49:33.191Z,47.70
2023-03-04T07:51:59.681Z,47.70
2023-03-04T07:54:26.157Z,47.60
2023-03-04T07:56:52.635Z,47.80
2023-03-04T07:59:19.110Z,47.80
2023-03-04T08:01:45.790Z,47.80
2023-03-04T08:04:12.318Z,47.80
2023-03-04T08:06:38.830Z,47.80
2023-03-04T08:09:05.384Z,47.80
2023-03-04T08:11:31.866Z,47.80
2023-03-04T08:13:58.332Z,47.80
2023-03-04T08:16:24.811Z,47.90
2023-03-04T08:18:51.312Z,47.90
2023-03-04T08:21:17.781Z,47.90
2023-03-04T08:23:44.291Z,48.00
2023-03-04T08:26:10.792Z,47.90
2023-03-04T08:28:37.267Z,48.00
2023-03-04T08:31:03.805Z,48.10
2023-03-04T08:33:30.306Z,47.90
2023-03-04T08:35:56.935Z,48.00
2023-03-04T08:41:14.352Z,48.10
2023-03-04T08:43:40.851Z,48.10
2023-03-04T08:46:07.387Z,48.20
2023-03-04T08:48:33.880Z,48.20
2023-03-04T08:51:00.341Z,48.20
2023-03-04T08:53:26.799Z,48.20
2023-03-04T08:55:53.281Z,48.20
2023-03-04T08:58:19.779Z,48.30
2023-03-04T09:00:46.260Z,48.30
2023-03-04T09:03:12.860Z,48.40
2023-03-04T09:05:39.399Z,48.20
2023-03-04T09:08:05.903Z,48.40
2023-03-04T09:10:32.367Z,48.40
2023-03-04T09:12:58.854Z,48.40
2023-03-04T09:15:25.335Z,48.50
2023-03-04T09:17:51.818Z,48.50
2023-03-04T09:20:18.353Z,48.60
2023-03-04T09:22:44.837Z,48.50
2023-03-04T09:25:13.147Z,48.50
2023-03-04T09:27:39.754Z,48.70
2023-03-04T09:30:06.235Z,48.70
2023-03-04T09:32:32.850Z,48.60
2023-03-04T09:34:59.402Z,48.60
2023-03-04T09:37:25.917Z,48.70
2023-03-04T09:39:52.377Z,48.70
2023-03-04T09:42:18.863Z,48.80
2023-03-04T09:44:45.378Z,48.90
2023-03-04T09:47:11.873Z,48.90
2023-03-04T09:49:38.351Z,48.80
2023-03-04T09:52:04.843Z,49.00
2023-03-04T09:54:31.324Z,49.00
2023-03-04T09:56:57.834Z,49.00
2023-03-04T09:59:24.311Z,49.20
2023-03-04T10:01:51.777Z,49.20
2023-03-04T10:04:18.294Z,49.30
2023-03-04T10:06:44.785Z,49.40
2023-03-04T10:09:11.262Z,49.40
2023-03-04T10:11:37.738Z,49.40
2023-03-04T10:14:04.225Z,49.40
2023-03-04T10:16:30.753Z,49.50
2023-03-04T10:18:57.261Z,49.50
2023-03-04T10:21:23.760Z,49.40
2023-03-04T10:23:50.243Z,49.60
2023-03-04T10:26:16.713Z,49.60
2023-03-04T10:28:43.171Z,49.60
2023-03-04T10:31:09.687Z,49.70
2023-03-04T10:33:36.181Z,49.70
2023-03-04T10:36:02.740Z,49.70
2023-03-04T10:38:29.266Z,49.80
2023-03-04T10:40:55.731Z,49.70
2023-03-04T10:43:22.218Z,49.70
2023-03-04T10:45:48.723Z,49.80
2023-03-04T10:48:15.338Z,49.90
2023-03-04T10:50:41.811Z,49.90
2023-03-04T10:53:08.319Z,50.00
2023-03-04T10:55:34.793Z,49.80
2023-03-04T10:58:01.309Z,50.00
2023-03-04T11:00:27.812Z,50.00
2023-03-04T11:02:54.319Z,50.10
2023-03-04T11:05:21.743Z,50.20
2023-03-04T11:07:55.582Z,50.10
2023-03-04T11:10:23.013Z,50.20
2023-03-04T11:12:49.510Z,50.20
2023-03-04T11:15:15.988Z,50.30
2023-03-04T11:17:45.238Z,50.30
2023-03-04T11:20:11.709Z,50.50
2023-03-04T11:22:38.174Z,50.40
2023-03-04T11:25:04.683Z,50.40
2023-03-04T11:27:31.177Z,50.50
2023-03-04T11:29:57.818Z,50.50
2023-03-04T11:32:24.322Z,50.50
2023-03-04T11:34:50.841Z,50.70
2023-03-04T11:37:17.312Z,50.70
2023-03-04T11:39:43.819Z,50.70
2023-03-04T11:42:10.298Z,50.60
2023-03-04T11:44:36.795Z,50.60
2023-03-04T11:47:03.799Z,50.90
2023-03-04T11:49:30.334Z,50.90
2023-03-04T11:51:56.814Z,51.00
2023-03-04T11:54:23.301Z,51.00
2023-03-04T11:56:49.781Z,51.00
2023-03-04T11:59:16.311Z,51.10
2023-03-04T12:01:42.800Z,51.10
2023-03-04T12:04:09.383Z,51.20
2023-03-04T12:06:35.950Z,51.20
2023-03-04T12:09:02.474Z,51.30
2023-03-04T12:11:28.946Z,51.40
2023-03-04T12:13:55.443Z,51.30
2023-03-04T12:16:21.957Z,51.40
2023-03-04T12:18:48.469Z,51.50
2023-03-04T12:21:14.889Z,51.50
2023-03-04T12:23:41.370Z,51.60
2023-03-04T12:26:07.856Z,51.60
2023-03-04T12:28:34.340Z,51.80
2023-03-04T12:31:00.826Z,51.70
2023-03-04T12:33:27.313Z,51.80
2023-03-04T12:35:53.969Z,51.80
2023-03-04T12:38:20.532Z,51.90
2023-03-04T12:40:47.026Z,51.90
2023-03-04T12:43:13.516Z,52.00
2023-03-04T12:45:45.893Z,51.90
2023-03-04T12:48:12.432Z,52.00
2023-03-04T12:50:38.910Z,52.10
2023-03-04T12:53:05.406Z,52.10
2023-03-04T12:55:31.905Z,52.30
2023-03-04T12:57:58.408Z,52.30
2023-03-04T13:00:24.892Z,52.20
2023-03-04T13:02:51.449Z,52.30
2023-03-04T13:05:17.997Z,52.40
2023-03-04T13:07:44.488Z,52.40
2023-03-04T13:10:11.067Z,52.50
2023-03-04T13:12:37.558Z,52.50
2023-03-04T13:15:04.042Z,52.50
2023-03-04T13:17:30.522Z,52.60
2023-03-04T13:19:57.895Z,52.60
2023-03-04T13:22:24.369Z,52.70
2023-03-04T13:24:50.840Z,52.70
2023-03-04T13:27:17.341Z,52.70
2023-03-04T13:29:43.830Z,52.80
2023-03-04T13:32:10.422Z,52.80
2023-03-04T13:34:36.941Z,52.70
2023-03-04T13:37:03.434Z,52.80
2023-03-04T13:39:29.916Z,52.80
2023-03-04T13:41:56.412Z,52.80
2023-03-04T13:44:22.906Z,52.80
2023-03-04T13:46:49.495Z,53.00
2023-03-04T13:49:15.993Z,52.90
2023-03-04T13:51:42.470Z,52.90
2023-03-04T13:54:08.955Z,53.00
2023-03-04T13:56:37.647Z,53.10
2023-03-04T13:59:04.354Z,53.00
2023-03-04T14:01:30.817Z,53.10
2023-03-04T14:03:57.413Z,53.10
2023-03-04T14:06:23.923Z,53.10
2023-03-04T14:08:50.418Z,53.20
2023-03-04T14:11:16.914Z,53.20
2023-03-04T14:13:43.426Z,53.20
2023-03-04T14:16:09.966Z,53.20
2023-03-04T14:18:36.490Z,53.40
2023-03-04T14:21:02.964Z,53.30
2023-03-04T14:23:29.418Z,53.30
2023-03-04T14:25:57.962Z,53.40
2023-03-04T14:28:24.434Z,53.40
2023-03-04T14:30:50.911Z,53.40
2023-03-04T14:33:17.380Z,53.40
2023-03-04T14:35:43.897Z,53.50
2023-03-04T14:38:16.108Z,53.50
2023-03-04T14:40:42.624Z,53.60
2023-03-04T14:43:09.125Z,53.60
2023-03-04T14:45:35.700Z,53.70
2023-03-04T14:48:02.256Z,53.70
2023-03-04T14:50:28.804Z,53.60
2023-03-04T14:52:55.276Z,53.70
2023-03-04T14:55:21.768Z,53.70
2023-03-04T14:57:48.245Z,53.80
2023-03-04T15:00:14.720Z,53.80
2023-03-04T15:02:41.231Z,53.70
2023-03-04T15:05:16.160Z,53.60
2023-03-04T15:07:46.012Z,53.80
2023-03-04T15:10:12.499Z,53.70
2023-03-04T15:12:39.032Z,53.80
2023-03-04T15:15:05.497Z,53.80
2023-03-04T15:17:31.984Z,53.70
2023-03-04T15:19:58.473Z,53.80
2023-03-04T15:22:24.959Z,53.70
2023-03-04T15:24:51.444Z,53.70
2023-03-04T15:27:17.930Z,53.70
2023-03-04T15:29:44.423Z,53.80
2023-03-04T15:32:16.056Z,53.80
2023-03-04T15:34:42.556Z,53.80
2023-03-04T15:37:09.061Z,53.70
2023-03-04T15:39:35.542Z,53.80
2023-03-04T15:42:02.037Z,53.80
2023-03-04T15:44:28.503Z,53.80
2023-03-04T15:46:55.217Z,53.70
2023-03-04T15:49:21.767Z,53.70
2023-03-04T15:51:48.269Z,53.70
2023-03-04T15:54:14.740Z,53.60
2023-03-04T15:56:41.261Z,53.70
2023-03-04T15:59:07.751Z,53.70
2023-03-04T16:01:34.248Z,53.70
2023-03-04T16:04:00.752Z,53.60
2023-03-04T16:06:27.298Z,53.60
2023-03-04T16:08:53.783Z,53.60
2023-03-04T16:11:22.064Z,53.60
2023-03-04T16:13:48.564Z,53.40
2023-03-04T16:16:15.095Z,53.50
2023-03-04T16:18:41.579Z,53.50
2023-03-04T16:21:08.058Z,53.50
2023-03-04T16:23:34.538Z,53.50
2023-03-04T16:26:01.006Z,53.50
2023-03-04T16:28:27.491Z,53.40
2023-03-04T16:30:54.002Z,53.40
2023-03-04T16:33:20.499Z,53.40
2023-03-04T16:35:47.071Z,53.40
2023-03-04T16:38:13.670Z,53.40
2023-03-04T16:40:40.163Z,53.10
2023-03-04T16:43:06.646Z,53.30
2023-03-04T16:45:33.160Z,53.30
2023-03-04T16:47:59.637Z,53.20
2023-03-04T16:50:26.157Z,53.30
2023-03-04T16:52:52.877Z,53.20
2023-03-04T16:55:19.395Z,53.20
2023-03-04T16:57:45.887Z,53.20
2023-03-04T17:00:12.375Z,53.10
2023-03-04T17:02:38.894Z,53.00
2023-03-04T17:05:05.435Z,53.10
2023-03-04T17:07:34.122Z,53.10
2023-03-04T17:10:00.610Z,52.90
2023-03-04T17:12:28.096Z,53.00
2023-03-04T17:14:54.574Z,53.00
2023-03-04T17:17:21.061Z,52.90
2023-03-04T17:19:47.562Z,52.90
2023-03-04T17:22:14.055Z,52.90
2023-03-04T17:24:40.537Z,52.80
2023-03-04T17:27:07.016Z,52.80
2023-03-04T17:29:33.493Z,52.80
2023-03-04T17:31:59.995Z,52.80
2023-03-04T17:34:26.524Z,52.80
2023-03-04T17:36:53.017Z,52.80
2023-03-04T17:39:19.499Z,52.80
2023-03-04T17:41:46.134Z,52.70
2023-03-04T17:44:12.642Z,52.70
2023-03-04T17:46:39.184Z,52.70
2023-03-04T17:49:05.794Z,52.70
2023-03-04T17:51:32.283Z,52.60
2023-03-04T17:53:58.825Z,52.60
2023-03-04T17:56:25.303Z,52.60
2023-03-04T17:58:51.776Z,52.60
2023-03-04T18:01:18.270Z,52.60
2023-03-04T18:03:44.764Z,52.60
2023-03-04T18:06:11.251Z,52.60
2023-03-04T18:08:37.728Z,52.60
2023-03-04T18:11:04.250Z,52.60
2023-03-04T18:13:30.752Z,52.60
2023-03-04T18:15:57.382Z,52.50
2023-03-04T18:18:23.960Z,52.50
2023-03-04T18:20:50.464Z,52.50
2023-03-04T18:23:16.945Z,52.50
2023-03-04T18:25:43.445Z,52.50
2023-03-04T18:28:09.932Z,52.50
2023-03-04T18:30:36.411Z,52.50
2023-03-04T18:33:03.087Z,52.40
2023-03-04T18:35:34.221Z,52.30
2023-03-04T18:38:00.756Z,52.40
2023-03-04T18:40:27.243Z,52.30
2023-03-04T18:42:53.687Z,52.40
2023-03-04T18:45:20.162Z,52.40
2023-03-04T18:47:46.669Z,52.40
2023-03-04T18:50:13.123Z,52.40
2023-03-04T18:52:39.603Z,52.40
2023-03-04T18:55:06.085Z,52.40
2023-03-04T18:57:32.613Z,52.30
2023-03-04T18:59:59.117Z,52.20
2023-03-04T19:02:25.602Z,52.40
2023-03-04T19:04:52.156Z,52.30
2023-03-04T19:07:18.621Z,52.40
2023-03-04T19:09:45.110Z,52.40
2023-03-04T19:12:11.657Z,52.40
2023-03-04T19:14:38.156Z,52.50
2023-03-04T19:17:04.639Z,52.50
2023-03-04T19:19:31.119Z,52.50
2023-03-04T19:21:57.597Z,52.50
2023-03-04T19:24:24.098Z,52.30
2023-03-04T19:26:50.577Z,52.50
2023-03-04T19:29:17.066Z,52.50
2023-03-04T19:31:43.536Z,52.30
2023-03-04T19:34:10.036Z,52.50
2023-03-04T19:36:36.533Z,52.40
2023-03-04T19:39:03.016Z,52.40
2023-03-04T19:41:29.495Z,52.30
2023-03-04T19:43:58.180Z,52.30
2023-03-04T19:46:24.728Z,52.30
2023-03-04T19:48:51.250Z,52.30
2023-03-04T19:51:17.765Z,52.30
2023-03-04T19:53:44.282Z,52.20
2023-03-04T19:56:10.768Z,52.20
2023-03-04T19:58:37.239Z,52.10
2023-03-04T20:01:03.744Z,52.10
2023-03-04T20:03:30.249Z,52.10
2023-03-04T20:05:56.719Z,52.00
2023-03-04T20:08:23.182Z,52.00
2023-03-04T20:10:49.640Z,52.10
2023-03-04T20:13:16.112Z,52.00
2023-03-04T20:15:42.611Z,51.90
2023-03-04T20:18:10.230Z,52.00
2023-03-04T20:20:36.702Z,52.00
2023-03-04T20:23:04.273Z,52.00
2023-03-04T20:25:30.745Z,51.90
2023-03-04T20:27:57.231Z,51.90
2023-03-04T20:30:23.699Z,51.80
2023-03-04T20:32:51.139Z,51.90
2023-03-04T20:35:17.645Z,51.90
2023-03-04T20:37:44.135Z,51.90
2023-03-04T20:40:10.628Z,51.80
2023-03-04T20:42:37.113Z,51.70
2023-03-04T20:45:03.582Z,51.70
2023-03-04T20:47:30.058Z,51.60
2023-03-04T20:49:56.519Z,51.60
2023-03-04T20:52:23.002Z,51.60
2023-03-04T20:54:49.477Z,51.60
2023-03-04T20:57:15.943Z,51.60
2023-03-04T20:59:42.415Z,51.60
2023-03-04T21:02:08.900Z,51.60
2023-03-04T21:04:35.363Z,51.60
2023-03-04T21:07:01.893Z,51.60
2023-03-04T21:09:28.378Z,51.50
2023-03-04T21:11:54.873Z,51.30
2023-03-04T21:14:21.345Z,51.50
2023-03-04T21:16:47.820Z,51.50
2023-03-04T21:19:14.293Z,51.40
2023-03-04T21:21:40.761Z,51.40
2023-03-04T21:24:07.235Z,51.40
2023-03-04T21:26:33.696Z,51.40
2023-03-04T21:29:00.166Z,51.40
2023-03-04T21:31:26.700Z,51.40
2023-03-04T21:33:53.234Z,51.40
2023-03-04T21:36:19.713Z,51.40
2023-03-04T21:38:46.188Z,51.30
2023-03-04T21:41:12.661Z,51.30
2023-03-04T21:43:39.145Z,51.30
2023-03-04T21:46:05.621Z,51.20
2023-03-04T21:48:32.111Z,51.10
2023-03-04T21:50:58.566Z,51.30
2023-03-04T21:53:25.043Z,51.20
2023-03-04T21:55:51.535Z,51.20
2023-03-04T21:58:18.093Z,51.20
2023-03-04T22:00:44.600Z,51.20
2023-03-04T22:03:11.119Z,51.20
2023-03-04T22:05:37.580Z,51.20
2023-03-04T22:08:04.074Z,51.10
2023-03-04T22:10:30.564Z,50.90
2023-03-04T22:12:57.047Z,51.10
2023-03-04T22:15:23.510Z,51.10
2023-03-04T22:17:50.039Z,50.90
2023-03-04T22:20:16.775Z,51.00
2023-03-04T22:22:43.297Z,51.10
2023-03-04T22:25:09.784Z,51.10
2023-03-04T22:27:36.268Z,51.10
2023-03-04T22:30:02.742Z,51.00
2023-03-04T22:32:29.280Z,51.00
2023-03-04T22:34:55.750Z,51.00
2023-03-04T22:37:22.243Z,50.90
2023-03-04T22:39:48.722Z,51.00
2023-03-04T22:42:15.224Z,50.90
2023-03-04T22:44:46.400Z,50.90
2023-03-04T22:47:12.890Z,50.90
2023-03-04T22:49:39.367Z,50.90
2023-03-04T22:52:05.831Z,50.90
2023-03-04T22:54:32.318Z,50.90
2023-03-04T22:56:58.796Z,50.90
2023-03-04T22:59:25.255Z,50.80
2023-03-04T23:01:51.720Z,50.70
2023-03-04T23:04:22.423Z,50.80
2023-03-04T23:06:48.921Z,50.80
2023-03-04T23:09:15.390Z,50.80
2023-03-04T23:11:41.884Z,50.80
2023-03-04T23:14:08.390Z,50.80
2023-03-04T23:16:34.916Z,50.80
2023-03-04T23:19:01.444Z,50.60
2023-03-04T23:21:27.943Z,50.70
2023-03-04T23:23:54.435Z,50.70
2023-03-04T23:26:20.901Z,50.70
2023-03-04T23:28:47.392Z,50.70
2023-03-04T23:31:13.886Z,50.60
2023-03-04T23:33:40.389Z,50.50
2023-03-04T23:36:06.853Z,50.60
2023-03-04T23:38:33.346Z,50.60
2023-03-04T23:40:59.843Z,50.60
2023-03-04T23:43:26.316Z,50.60
2023-03-04T23:45:52.866Z,50.50
2023-03-04T23:48:19.421Z,50.50
2023-03-04T23:50:45.873Z,50.50
2023-03-04T23:53:12.330Z,50.50
2023-03-04T23:55:38.807Z,50.50
2023-03-04T23:58:05.264Z,50.50
